Airfield :
LOGIN :

Register | Disclaimer

   EN    FR    IT 

 










Legend :    VFR   Marginal VFR   IFR   Intensive IFR   Very Intensive IFR
Visi :
Ceiling :
>= 8 km
>= 3000ft
5 to 8 km
1000 to 3000 ft
1500m to 5 km
500 to 1000 ft
800 to 1500m
200 to 500 ft
< 800m
< 200 ft
Symbols :   Thunderstorms  Fog  Heavy snow  Heavy precipitations  Wind > 20 kt
SIGMETs :     Misc.  Thunderstorms  Icing  Turbulence  Mountain Waves  Volcanic Ashes






- Airport Elevation : 1302 ft
- IATA code : GNB


LFLS - Grenoble / St. Geoirs

CURRENT METAR :
  • 170230Z AUTO 07008KT 4700 -SN BR FEW004 SCT010 OVC028 00/M00 Q1020 TEMPO 1000 SN BKN009

EXPIRED METARs :
  • 170200Z AUTO 08011KT 5000 -SN BR FEW013 SCT026 BKN031 M00/M01 Q1020
  • 170130Z AUTO 08010KT 5000 -SN BR FEW015 BKN032 OVC038 M00/M01 Q1020
  • 170100Z AUTO 08008KT 4400 -SN BR FEW020 OVC034 M00/M01 Q1021
  • 170030Z AUTO 08007KT 3700 -SN BR FEW010 BKN027 OVC032 M01/M01 Q1021
  • 170000Z AUTO 09005KT 2800 -SN BR FEW005 SCT024 OVC032 M01/M01 Q1021

TAF TAF LFLS
Valid from the 17 at 03:00 until the 18 at 03:00 UTC


170200Z 1703/1803 09005KT 2000 -SN SCT012 BKN030
PROB40
TEMPO 1703/1705 1000 SN BKN009
FM170500 VRB05KT 9999 SCT012 BKN020
TEMPO 1705/1714 -RA BKN006 OVC012
FM171400 36012KT 9999 BKN025
TEMPO 1721/1803 VRB03KT BKN012
ATIS : +33 4 76 65 55 89



MET'MAP, your aeronautical weather chart ! - Copyright ORBIFLY December 2007 - Disclaimer

ORBIFLY MET'MAP TEAM :

Programming & Development : Alexandra Zaïnal
Concept & original design : Baudouin d'Aumeries
Assistance for programming : Marc-Olivier Méhu
Technical & hardware support : Manuel Goepfert

Contact : metmap@orbifly.com




SOURCES & CREDITS :

   NOAA